Time;durP1;ratioP1;P1;durP2;ratioP2;P2;SDS_P1;SDS_P2;PMS_P1;PMS_P2;Temp;Humidity;BMP_temperature;BMP_pressure;BME280_temperature;BME280_humidity;BME280_pressure;Samples;Min_cycle;Max_cycle;Signal;HPM_P1;HPM_P2
2024/01/16 00:01:36;;;;;;;;;;;-1.70;99.90;;;-3.02;100.00;97263.00;5044533;28;1772;-70
2024/01/16 00:04:03;;;;;;;;;;;-1.80;99.90;;;-2.98;100.00;97258.81;5046621;28;1972;-71
2024/01/16 00:06:30;;;;;;;;;;;-1.80;99.90;;;-3.06;100.00;97265.53;5027856;28;1473;-71
2024/01/16 00:08:57;;;;;;;;;;;-1.80;99.90;;;-3.22;100.00;97256.97;5047344;28;1998;-71
2024/01/16 00:11:24;;;;;;;;;;;-1.80;99.90;;;-3.25;100.00;97245.09;5046242;28;1509;-71
2024/01/16 00:13:50;;;;;;;;;;;-1.90;99.90;;;-3.27;100.00;97251.84;5047702;28;1514;-71
2024/01/16 00:16:17;;;;;;;;;;;-1.90;99.90;;;-3.29;100.00;97258.59;5028097;28;1835;-71
2024/01/16 00:18:44;;;;;;;;;;;-1.90;99.90;;;-3.25;100.00;97264.56;5043413;28;1988;-71
2024/01/16 00:21:11;;;;;;;;;;;-1.90;99.90;;;-3.33;100.00;97272.13;5042839;28;1487;-71
2024/01/16 00:23:38;;;;;;;;;;;-2.00;99.90;;;-3.32;100.00;97271.28;5041473;28;1663;-70
2024/01/16 00:26:05;;;;;;;;;;;-2.00;99.90;;;-3.25;100.00;97270.47;5042038;28;1437;-71
2024/01/16 00:28:32;;;;;;;;;;;-1.90;99.90;;;-3.25;100.00;97273.03;4995236;28;1589;-72
2024/01/16 00:30:59;;;;;;;;;;;-2.00;99.90;;;-3.33;100.00;97273.81;5048197;28;1898;-71
2024/01/16 00:33:27;;;;;;;;;;;-2.00;99.90;;;-3.43;100.00;97275.44;5011029;28;3390;-72
2024/01/16 00:35:54;;;;;;;;;;;-2.00;99.90;;;-3.37;100.00;97280.56;5025287;28;1501;-71
2024/01/16 00:38:22;;;;;;;;;;;-2.00;99.90;;;-3.39;100.00;97283.06;5044340;28;1549;-71
2024/01/16 00:40:49;;;;;;;;;;;-2.00;99.90;;;-3.44;100.00;97273.75;5042846;28;1490;-72
2024/01/16 00:43:16;;;;;;;;;;;-2.10;99.90;;;-3.32;100.00;97286.50;5022860;28;1534;-71
2024/01/16 00:45:43;;;;;;;;;;;-2.10;99.90;;;-3.34;100.00;97289.88;5043251;28;1984;-70
2024/01/16 00:48:13;;;;;;;;;;;-2.10;99.90;;;-3.48;100.00;97279.63;5043207;28;1491;-71
2024/01/16 00:50:40;;;;;;;;;;;-2.10;99.90;;;-3.54;100.00;97290.56;5022028;28;1906;-72
2024/01/16 00:53:07;;;;;;;;;;;-2.10;99.90;;;-3.57;100.00;97288.84;5047601;28;1785;-71
2024/01/16 00:55:34;;;;;;;;;;;-2.20;99.90;;;-3.53;100.00;97291.44;5028432;28;1466;-71
2024/01/16 00:58:01;;;;;;;;;;;-2.20;99.90;;;-3.46;100.00;97291.47;5024730;28;1467;-71
2024/01/16 01:00:30;;;;;;;;;;;-2.20;99.90;;;-3.36;100.00;97292.41;5028435;28;1917;-71
2024/01/16 01:02:58;;;;;;;;;;;-2.20;99.90;;;-3.36;100.00;97293.25;5048488;28;1436;-71
2024/01/16 01:05:28;;;;;;;;;;;-2.10;99.90;;;-3.34;100.00;97284.81;5047012;28;1388;-71
2024/01/16 01:07:56;;;;;;;;;;;-2.10;99.90;;;-3.39;100.00;97287.31;5044205;28;1416;-71
2024/01/16 01:10:23;;;;;;;;;;;-2.10;99.90;;;-3.36;100.00;97292.41;5027199;28;1997;-72
2024/01/16 01:12:52;;;;;;;;;;;-2.10;99.90;;;-3.31;100.00;97300.03;5026856;28;1339;-72
2024/01/16 01:15:20;;;;;;;;;;;-2.00;99.90;;;-3.31;100.00;97297.50;5023359;28;3374;-71
2024/01/16 01:17:51;;;;;;;;;;;-2.00;99.90;;;-3.26;100.00;97295.84;5047697;28;1440;-72
2024/01/16 01:20:18;;;;;;;;;;;-2.00;99.90;;;-3.22;100.00;97303.50;5027944;28;1663;-71
2024/01/16 01:22:46;;;;;;;;;;;-2.00;99.90;;;-3.14;100.00;97306.09;5025471;28;1390;-71
2024/01/16 01:25:12;;;;;;;;;;;-1.80;99.90;;;-3.14;100.00;97301.03;5042750;28;1444;-72
2024/01/16 01:27:40;;;;;;;;;;;-1.90;99.90;;;-3.12;100.00;97301.91;5047356;28;2547;-71
2024/01/16 01:30:13;;;;;;;;;;;-1.80;99.90;;;-3.19;100.00;97306.06;5045067;28;1934;-71
2024/01/16 01:32:40;;;;;;;;;;;-1.80;99.90;;;-3.10;100.00;97305.28;5043351;28;1402;-72
2024/01/16 01:35:07;;;;;;;;;;;-1.80;99.90;;;-2.97;100.00;97308.75;5043528;28;2694;-71
2024/01/16 01:37:34;;;;;;;;;;;-1.80;99.90;;;-2.97;100.00;97309.59;5027825;28;2632;-72
2024/01/16 01:40:01;;;;;;;;;;;-1.80;99.90;;;-3.06;100.00;97309.53;5027693;28;1351;-71
2024/01/16 01:42:28;;;;;;;;;;;-1.80;99.90;;;-3.16;100.00;97307.78;5006210;28;1368;-71
2024/01/16 01:44:55;;;;;;;;;;;-1.80;99.90;;;-3.14;100.00;97307.81;5026253;28;2628;-71
2024/01/16 01:47:21;;;;;;;;;;;-1.90;99.90;;;-3.17;100.00;97308.59;5046584;28;2763;-72
2024/01/16 01:49:48;;;;;;;;;;;-1.80;99.90;;;-3.20;100.00;97306.06;5024382;28;1938;-71
2024/01/16 01:52:16;;;;;;;;;;;-1.80;99.90;;;-3.11;100.00;97315.44;5042822;28;1638;-72
2024/01/16 01:54:43;;;;;;;;;;;-1.80;99.90;;;-3.10;100.00;97323.06;5025624;28;1463;-72
2024/01/16 01:57:10;;;;;;;;;;;-1.80;99.90;;;-3.06;100.00;97313.75;5044114;28;1421;-72
2024/01/16 01:59:36;;;;;;;;;;;-1.80;99.90;;;-3.04;100.00;97318.00;5026918;28;3076;-70
2024/01/16 02:02:04;;;;;;;;;;;-1.80;99.90;;;-2.88;100.00;97321.50;5026804;28;1343;-71
2024/01/16 02:04:32;;;;;;;;;;;-1.80;99.90;;;-2.92;100.00;97324.00;5045548;28;1432;-71
2024/01/16 02:06:58;;;;;;;;;;;-1.80;99.90;;;-2.91;100.00;97318.94;5045496;28;1482;-71
2024/01/16 02:09:25;;;;;;;;;;;-1.70;99.90;;;-2.89;100.00;97316.44;5025291;28;1987;-71
2024/01/16 02:11:52;;;;;;;;;;;-1.70;99.90;;;-3.03;100.00;97312.09;5026936;28;1705;-72
2024/01/16 02:14:19;;;;;;;;;;;-1.80;99.90;;;-2.98;100.00;97312.97;5044664;28;2681;-72
2024/01/16 02:16:45;;;;;;;;;;;-1.70;99.90;;;-3.05;100.00;97325.63;5024968;28;1366;-72
2024/01/16 02:19:12;;;;;;;;;;;-1.70;99.90;;;-3.03;100.00;97322.25;5026338;28;1440;-71
2024/01/16 02:21:49;;;;;;;;;;;-1.70;99.90;;;-3.01;100.00;97324.78;5046981;28;1701;-72
2024/01/16 02:24:18;;;;;;;;;;;-1.70;99.90;;;-3.03;100.00;97322.25;5025258;28;1462;-71
2024/01/16 02:26:45;;;;;;;;;;;-1.70;99.90;;;-2.97;100.00;97324.81;5024003;28;2461;-72
2024/01/16 02:29:12;;;;;;;;;;;-1.60;99.90;;;-3.07;100.00;97323.06;5045329;28;1381;-72
2024/01/16 02:31:39;;;;;;;;;;;-1.70;99.90;;;-3.12;100.00;97319.66;5024991;28;1914;-71
2024/01/16 02:34:06;;;;;;;;;;;-1.70;99.90;;;-3.03;100.00;97324.81;5044688;28;1358;-72
2024/01/16 02:36:33;;;;;;;;;;;-1.70;99.90;;;-3.04;100.00;97322.25;5047679;28;1323;-71
2024/01/16 02:39:00;;;;;;;;;;;-1.80;99.90;;;-3.03;100.00;97327.34;5046365;28;1459;-71
2024/01/16 02:41:27;;;;;;;;;;;-1.80;99.90;;;-3.07;100.00;97325.63;5028926;28;3274;-72
2024/01/16 02:43:54;;;;;;;;;;;-1.80;99.90;;;-2.92;100.00;97329.09;5047229;28;1377;-72
2024/01/16 02:46:21;;;;;;;;;;;-1.80;99.90;;;-3.07;100.00;97333.22;5048874;28;1322;-71
2024/01/16 02:48:48;;;;;;;;;;;-1.80;99.90;;;-2.97;100.00;97329.91;5049237;28;1612;-72
2024/01/16 02:51:15;;;;;;;;;;;-1.80;99.90;;;-2.96;100.00;97335.84;5048152;28;1918;-71
2024/01/16 02:53:42;;;;;;;;;;;-1.80;99.90;;;-2.97;100.00;97331.59;5047511;28;1656;-72
2024/01/16 02:56:09;;;;;;;;;;;-1.70;99.90;;;-2.99;100.00;97335.81;5049163;28;1953;-71
2024/01/16 02:58:37;;;;;;;;;;;-1.70;99.90;;;-2.87;100.00;97338.47;5029771;28;1354;-72
2024/01/16 03:01:04;;;;;;;;;;;-1.70;99.90;;;-2.76;100.00;97339.38;5047476;28;1448;-71
2024/01/16 03:03:31;;;;;;;;;;;-1.70;99.90;;;-2.95;100.00;97340.94;5048606;28;1436;-71
2024/01/16 03:05:59;;;;;;;;;;;-1.70;99.90;;;-2.88;100.00;97335.91;5049987;28;1438;-71
2024/01/16 03:08:26;;;;;;;;;;;-1.70;99.90;;;-2.85;100.00;97338.44;5049690;28;1904;-72
2024/01/16 03:10:53;;;;;;;;;;;-1.70;99.90;;;-2.94;100.00;97344.34;5024739;28;1922;-71
2024/01/16 03:13:20;;;;;;;;;;;-1.70;99.90;;;-3.01;100.00;97342.56;5034081;28;1488;-72
2024/01/16 03:15:46;;;;;;;;;;;-1.70;99.90;;;-3.01;100.00;97334.94;5047429;28;1567;-71
2024/01/16 03:18:13;;;;;;;;;;;-1.60;99.90;;;-3.12;100.00;97323.88;5030383;28;1460;-71
2024/01/16 03:20:41;;;;;;;;;;;-1.70;99.90;;;-3.10;100.00;97335.75;5046235;28;1349;-71
2024/01/16 03:23:08;;;;;;;;;;;-1.80;99.90;;;-3.17;100.00;97331.44;5013678;28;3264;-71
2024/01/16 03:25:38;;;;;;;;;;;-1.80;99.90;;;-3.16;100.00;97328.94;5047065;28;1673;-70
2024/01/16 03:28:07;;;;;;;;;;;-1.90;99.90;;;-3.11;100.00;97328.13;5047069;28;1311;-71
2024/01/16 03:30:35;;;;;;;;;;;-1.80;99.90;;;-3.12;100.00;97324.75;5048170;28;1989;-71
2024/01/16 03:33:02;;;;;;;;;;;-1.80;99.90;;;-3.13;100.00;97324.72;5028744;28;1442;-72
2024/01/16 03:35:29;;;;;;;;;;;-1.80;99.90;;;-3.16;100.00;97326.41;5048874;28;2063;-71
2024/01/16 03:37:56;;;;;;;;;;;-1.80;99.90;;;-3.14;100.00;97331.50;5028062;28;2807;-71
2024/01/16 03:40:23;;;;;;;;;;;-1.80;99.90;;;-3.14;100.00;97323.03;5044660;28;1414;-71
2024/01/16 03:42:50;;;;;;;;;;;-1.80;99.90;;;-3.17;100.00;97329.78;5045952;28;1403;-71
2024/01/16 03:45:17;;;;;;;;;;;-1.80;99.90;;;-3.33;100.00;97335.59;5046514;28;2571;-71
2024/01/16 03:47:44;;;;;;;;;;;-1.90;99.90;;;-3.24;100.00;97329.72;5046445;28;2704;-72
2024/01/16 03:50:12;;;;;;;;;;;-1.90;99.90;;;-3.31;100.00;97333.03;5045687;28;1987;-72
2024/01/16 03:52:39;;;;;;;;;;;-1.90;99.90;;;-3.35;100.00;97339.78;5026431;28;1390;-72
2024/01/16 03:55:06;;;;;;;;;;;-1.90;99.90;;;-3.39;100.00;97328.75;5028267;28;1477;-72
2024/01/16 03:57:33;;;;;;;;;;;-2.00;99.90;;;-3.32;100.00;97336.44;5047403;28;1409;-71
2024/01/16 04:00:00;;;;;;;;;;;-1.90;99.90;;;-3.31;100.00;97327.97;5046433;28;1700;-72
2024/01/16 04:02:26;;;;;;;;;;;-2.00;99.90;;;-3.34;100.00;97322.88;5023465;28;3209;-71
2024/01/16 04:04:54;;;;;;;;;;;-2.00;99.90;;;-3.40;100.00;97328.72;5047429;28;1326;-71
2024/01/16 04:07:23;;;;;;;;;;;-2.00;99.90;;;-3.35;100.00;97319.50;5045651;28;1385;-71
2024/01/16 04:09:50;;;;;;;;;;;-2.00;99.90;;;-3.44;100.00;97320.25;5007157;28;1367;-71
2024/01/16 04:12:17;;;;;;;;;;;-2.10;99.90;;;-3.58;100.00;97321.81;5047252;28;1334;-71
2024/01/16 04:14:43;;;;;;;;;;;-2.10;99.90;;;-3.55;100.00;97323.53;5045674;28;1700;-71
2024/01/16 04:17:10;;;;;;;;;;;-2.10;99.90;;;-3.68;100.00;97328.50;5045841;28;1936;-72
2024/01/16 04:19:37;;;;;;;;;;;-2.20;99.90;;;-3.72;100.00;97331.81;5047388;28;1654;-71
2024/01/16 04:22:05;;;;;;;;;;;-2.20;99.90;;;-3.67;100.00;97330.22;5047545;28;1370;-72
2024/01/16 04:24:32;;;;;;;;;;;-2.20;99.90;;;-3.68;100.00;97327.66;5023878;28;1339;-70
2024/01/16 04:26:58;;;;;;;;;;;-2.30;99.90;;;-3.68;100.00;97327.66;5026443;28;1701;-72
2024/01/16 04:29:25;;;;;;;;;;;-2.30;99.90;;;-3.67;100.00;97329.34;5047096;28;1470;-71
2024/01/16 04:31:52;;;;;;;;;;;-2.30;99.90;;;-3.74;100.00;97332.66;5027491;28;1985;-71
2024/01/16 04:34:19;;;;;;;;;;;-2.40;99.90;;;-3.62;100.00;97332.78;5028966;28;1383;-71
2024/01/16 04:36:46;;;;;;;;;;;-2.40;99.90;;;-3.70;100.00;97327.63;5045879;28;1330;-71
2024/01/16 04:39:13;;;;;;;;;;;-2.40;99.90;;;-3.69;100.00;97313.28;5046424;28;1642;-71
2024/01/16 04:41:40;;;;;;;;;;;-2.40;99.90;;;-3.76;100.00;97311.50;5007447;28;1451;-71
2024/01/16 04:44:07;;;;;;;;;;;-2.30;99.90;;;-3.75;100.00;97315.75;5047116;28;3049;-72
2024/01/16 04:46:34;;;;;;;;;;;-2.30;99.90;;;-3.85;100.00;97315.66;5045508;28;1428;-71
2024/01/16 04:49:02;;;;;;;;;;;-2.40;99.90;;;-3.76;100.00;97322.50;5029224;28;1374;-71
2024/01/16 04:51:28;;;;;;;;;;;-2.60;99.90;;;-3.92;100.00;97323.16;5026198;28;1907;-71
2024/01/16 04:53:55;;;;;;;;;;;-2.70;99.90;;;-3.81;100.00;97319.06;5046096;28;1385;-72
2024/01/16 04:56:22;;;;;;;;;;;-2.80;99.90;;;-4.01;100.00;97322.25;5024776;28;1505;-71
2024/01/16 04:58:49;;;;;;;;;;;-2.80;99.90;;;-3.88;100.00;97318.16;5044713;28;1814;-71
2024/01/16 05:01:16;;;;;;;;;;;-2.80;99.90;;;-3.72;100.00;97314.06;5014499;28;1538;-70
2024/01/16 05:03:43;;;;;;;;;;;-2.80;99.90;;;-3.70;100.00;97309.03;5045696;28;1436;-73
2024/01/16 05:06:14;;;;;;;;;;;-2.80;99.90;;;-3.58;100.00;97307.47;5024592;28;1478;-71
2024/01/16 05:08:42;;;;;;;;;;;-2.70;99.90;;;-3.50;100.00;97297.38;5027115;28;1398;-72
2024/01/16 05:11:09;;;;;;;;;;;-2.60;99.90;;;-3.54;100.00;97297.31;5038368;28;1906;-72
2024/01/16 05:13:36;;;;;;;;;;;-2.60;99.90;;;-3.56;100.00;97292.22;5044242;28;2012;-71
2024/01/16 05:16:03;;;;;;;;;;;-2.50;99.90;;;-3.50;100.00;97293.97;5023745;28;1386;-71
2024/01/16 05:18:29;;;;;;;;;;;-2.40;99.90;;;-3.63;100.00;97287.94;5021917;28;1354;-71
2024/01/16 05:20:56;;;;;;;;;;;-2.30;99.90;;;-3.50;100.00;97289.75;5026146;28;1743;-71
2024/01/16 05:23:26;;;;;;;;;;;-2.30;99.90;;;-3.56;100.00;97279.53;5021891;28;1390;-71
2024/01/16 05:25:53;;;;;;;;;;;-2.30;99.90;;;-3.44;100.00;97273.75;5045865;28;1499;-72
2024/01/16 05:28:20;;;;;;;;;;;-2.30;99.90;;;-3.57;100.00;97275.31;5045662;28;3606;-71
2024/01/16 05:30:47;;;;;;;;;;;-2.30;99.90;;;-3.71;100.00;97266.75;5044896;28;1922;-71
2024/01/16 05:33:14;;;;;;;;;;;-2.40;99.90;;;-3.72;100.00;97268.41;5045167;28;1238;-71
2024/01/16 05:35:41;;;;;;;;;;;-2.30;99.90;;;-3.71;100.00;97271.84;5023033;28;2982;-70
2024/01/16 05:38:08;;;;;;;;;;;-2.30;99.90;;;-3.80;100.00;97270.91;5046057;28;1349;-72
2024/01/16 05:40:34;;;;;;;;;;;-2.40;99.90;;;-3.87;100.00;97265.78;5043839;28;1457;-72
2024/01/16 05:43:01;;;;;;;;;;;-2.40;99.90;;;-3.93;100.00;97265.72;5045372;28;2578;-72
2024/01/16 05:45:28;;;;;;;;;;;-2.50;99.90;;;-4.00;100.00;97267.31;5028927;28;1555;-70
2024/01/16 05:47:56;;;;;;;;;;;-2.60;99.90;;;-3.94;100.00;97261.47;5046458;28;1452;-71
2024/01/16 05:50:23;;;;;;;;;;;-2.60;99.90;;;-4.03;100.00;97255.47;5045172;28;1902;-71
2024/01/16 05:52:50;;;;;;;;;;;-2.60;99.90;;;-4.01;100.00;97258.88;5045292;28;1778;-72
2024/01/16 05:55:17;;;;;;;;;;;-2.70;99.90;;;-3.88;100.00;97264.91;5026971;28;1453;-72
2024/01/16 05:57:44;;;;;;;;;;;-2.70;99.90;;;-3.90;100.00;97261.53;5047147;28;2349;-71
2024/01/16 06:00:11;;;;;;;;;;;-2.70;99.90;;;-4.07;100.00;97257.97;5046303;28;1390;-72
2024/01/16 06:02:38;;;;;;;;;;;-2.80;99.90;;;-4.13;100.00;97248.59;5027700;28;2511;-71
2024/01/16 06:05:05;;;;;;;;;;;-2.80;99.90;;;-4.13;100.00;97255.38;5046836;28;1422;-72
2024/01/16 06:07:32;;;;;;;;;;;-2.80;99.90;;;-4.28;100.00;97256.91;5045537;28;1388;-71
2024/01/16 06:09:59;;;;;;;;;;;-2.80;99.90;;;-4.33;100.00;97257.69;5046629;28;1377;-71
2024/01/16 06:12:26;;;;;;;;;;;-2.90;99.90;;;-4.35;100.00;97255.16;5026193;28;1906;-72
2024/01/16 06:14:52;;;;;;;;;;;-2.90;99.90;;;-4.30;100.00;97258.56;5048688;28;1307;-71
2024/01/16 06:17:19;;;;;;;;;;;-3.00;99.90;;;-4.40;100.00;97259.31;5050066;28;3106;-71
2024/01/16 06:19:47;;;;;;;;;;;-3.00;99.90;;;-4.39;100.00;97252.56;5047555;28;1926;-72
2024/01/16 06:22:13;;;;;;;;;;;-3.00;99.90;;;-4.50;100.00;97254.97;5048705;28;3212;-71
2024/01/16 06:24:41;;;;;;;;;;;-3.00;99.90;;;-4.38;100.00;97251.72;5051875;28;1312;-71
2024/01/16 06:27:07;;;;;;;;;;;-3.00;99.90;;;-4.30;100.00;97245.06;5050501;28;1209;-71
2024/01/16 06:29:35;;;;;;;;;;;-3.10;99.90;;;-4.28;100.00;97243.41;5050211;28;1074;-72
2024/01/16 06:32:02;;;;;;;;;;;-3.20;99.90;;;-4.21;100.00;97248.53;5050309;28;1898;-71
2024/01/16 06:34:29;;;;;;;;;;;-3.20;99.90;;;-4.27;100.00;97243.41;5030096;28;1391;-71
2024/01/16 06:36:56;;;;;;;;;;;-3.20;99.90;;;-4.29;100.00;97239.16;5033815;28;2532;-71
2024/01/16 06:39:23;;;;;;;;;;;-3.30;99.90;;;-4.55;100.00;97233.81;5049230;28;1221;-71
2024/01/16 06:41:50;;;;;;;;;;;-3.30;99.90;;;-4.58;100.00;97236.28;5049057;28;1098;-71
2024/01/16 06:44:18;;;;;;;;;;;-3.30;99.90;;;-4.41;100.00;97230.59;5030641;28;1292;-71
2024/01/16 06:46:45;;;;;;;;;;;-3.30;99.90;;;-4.27;100.00;97227.34;5027614;28;1261;-72
2024/01/16 06:49:12;;;;;;;;;;;-3.30;99.90;;;-4.37;100.00;97233.16;5048823;28;1152;-71
2024/01/16 06:51:39;;;;;;;;;;;-3.40;99.90;;;-4.36;100.00;97235.69;5046900;28;2043;-71
2024/01/16 06:54:06;;;;;;;;;;;-3.30;99.90;;;-4.35;100.00;97227.28;5050288;28;1443;-71
2024/01/16 06:56:33;;;;;;;;;;;-3.20;99.90;;;-4.38;100.00;97227.22;5014833;28;1054;-72
2024/01/16 06:58:59;;;;;;;;;;;-3.20;99.90;;;-4.45;100.00;97231.41;5029112;28;1093;-71
2024/01/16 07:01:26;;;;;;;;;;;-3.10;99.90;;;-4.44;100.00;97238.16;5029541;28;1226;-71
2024/01/16 07:04:10;;;;;;;;;;;-3.10;99.90;;;-4.38;100.00;97234.84;5020180;28;1272;-71
2024/01/16 07:06:37;;;;;;;;;;;-3.00;99.90;;;-4.47;100.00;97234.72;5030774;28;1147;-71
2024/01/16 07:09:05;;;;;;;;;;;-3.00;99.90;;;-4.48;100.00;97238.97;5049661;28;1212;-71
2024/01/16 07:11:32;;;;;;;;;;;-3.00;99.90;;;-4.45;100.00;97233.06;5048242;28;1975;-71
2024/01/16 07:13:58;;;;;;;;;;;-3.00;99.90;;;-4.39;100.00;97232.31;5028345;28;3712;-72
2024/01/16 07:16:25;;;;;;;;;;;-3.10;99.90;;;-4.43;100.00;97231.41;5029499;28;1245;-71
2024/01/16 07:18:53;;;;;;;;;;;-3.00;99.90;;;-4.38;100.00;97239.06;5046680;28;1163;-72
2024/01/16 07:21:20;;;;;;;;;;;-3.10;99.90;;;-4.36;100.00;97232.31;5027439;28;1344;-72
2024/01/16 07:23:48;;;;;;;;;;;-3.00;99.90;;;-4.28;100.00;97226.50;5049359;28;1307;-71
2024/01/16 07:26:16;;;;;;;;;;;-3.00;99.90;;;-4.20;100.00;97231.63;5025747;28;2206;-71
2024/01/16 07:28:43;;;;;;;;;;;-2.90;99.90;;;-4.29;100.00;97236.63;5031109;28;1743;-71
2024/01/16 07:31:11;;;;;;;;;;;-2.90;99.90;;;-4.39;100.00;97240.75;5029648;28;1993;-72
2024/01/16 07:33:38;;;;;;;;;;;-2.90;99.90;;;-4.23;100.00;97235.00;5029535;28;1453;-71
2024/01/16 07:36:07;;;;;;;;;;;-3.00;99.90;;;-4.39;100.00;97238.22;5050359;28;1183;-72
2024/01/16 07:38:35;;;;;;;;;;;-3.00;99.90;;;-4.30;100.00;97243.38;5049380;28;1105;-70
2024/01/16 07:41:03;;;;;;;;;;;-3.00;99.90;;;-4.26;100.00;97242.59;5030363;28;1025;-70
2024/01/16 07:43:30;;;;;;;;;;;-3.00;99.90;;;-4.33;100.00;97248.41;5049959;28;2638;-72
2024/01/16 07:45:57;;;;;;;;;;;-3.00;99.90;;;-4.36;100.00;97260.19;5031064;28;2815;-71
2024/01/16 07:48:24;;;;;;;;;;;-3.00;99.90;;;-4.31;100.00;97256.91;5029024;28;1786;-71
2024/01/16 07:50:51;;;;;;;;;;;-3.00;99.90;;;-4.28;100.00;97256.91;5028425;28;1894;-72
2024/01/16 07:53:19;;;;;;;;;;;-3.10;99.90;;;-4.36;100.00;97266.09;5013329;28;1769;-71
2024/01/16 07:55:46;;;;;;;;;;;-3.00;99.90;;;-4.38;100.00;97272.84;5050184;28;1457;-71
2024/01/16 07:58:13;;;;;;;;;;;-3.10;99.90;;;-4.23;100.00;97282.31;5048659;28;1125;-71
2024/01/16 08:00:40;;;;;;;;;;;-3.10;99.90;;;-4.31;100.00;97267.03;5027086;28;3429;-71
2024/01/16 08:03:12;;;;;;;;;;;-3.20;99.90;;;-4.41;100.00;97273.66;5048601;28;1674;-71
2024/01/16 08:05:39;;;;;;;;;;;-3.20;99.90;;;-4.36;100.00;97283.84;5022946;28;1347;-71
2024/01/16 08:08:12;;;;;;;;;;;-3.10;99.90;;;-4.40;100.00;97282.13;5046889;28;1199;-71
2024/01/16 08:10:42;;;;;;;;;;;-3.00;99.90;;;-4.22;100.00;97287.41;5047021;28;1344;-71
2024/01/16 08:13:08;;;;;;;;;;;-3.10;99.90;;;-4.23;100.00;97280.63;5047767;28;2087;-71
2024/01/16 08:15:36;;;;;;;;;;;-3.10;99.90;;;-4.25;100.00;97289.88;5047704;28;1690;-71
2024/01/16 08:18:04;;;;;;;;;;;-3.10;99.90;;;-4.33;100.00;97286.44;5033319;28;1138;-71
2024/01/16 08:20:31;;;;;;;;;;;-3.10;99.90;;;-4.21;100.00;97286.56;5026287;28;1089;-71
2024/01/16 08:22:58;;;;;;;;;;;-3.10;99.90;;;-4.14;100.00;97289.16;5051744;28;993;-72
2024/01/16 08:25:24;;;;;;;;;;;-3.10;99.90;;;-4.26;100.00;97290.72;5011924;28;1288;-71
2024/01/16 08:27:51;;;;;;;;;;;-3.10;99.90;;;-4.26;100.00;97283.13;5029693;28;1090;-71
2024/01/16 08:30:18;;;;;;;;;;;-3.10;99.90;;;-4.28;100.00;97283.94;5029516;28;2112;-71
2024/01/16 08:32:45;;;;;;;;;;;-3.10;99.90;;;-4.40;100.00;97284.66;5028379;28;1981;-72
2024/01/16 08:35:12;;;;;;;;;;;-3.10;99.90;;;-4.27;100.00;97275.50;5029848;28;1379;-71
2024/01/16 08:37:39;;;;;;;;;;;-3.10;99.90;;;-4.32;100.00;97285.59;5028116;28;1088;-72
2024/01/16 08:40:06;;;;;;;;;;;-3.10;99.90;;;-4.15;100.00;97285.78;5027294;28;1326;-71
2024/01/16 08:42:33;;;;;;;;;;;-3.10;99.90;;;-4.08;100.00;97295.16;5024335;28;1138;-71
2024/01/16 08:45:00;;;;;;;;;;;-3.10;99.90;;;-4.30;100.00;97295.75;5027211;28;1342;-71
2024/01/16 08:47:27;;;;;;;;;;;-3.10;99.90;;;-4.30;100.00;97295.75;5047627;28;1266;-71
2024/01/16 08:49:53;;;;;;;;;;;-3.10;99.90;;;-4.04;100.00;97301.97;5046909;28;1243;-71
2024/01/16 08:52:21;;;;;;;;;;;-3.10;99.90;;;-4.09;100.00;97298.50;5048638;28;1910;-72
2024/01/16 08:54:48;;;;;;;;;;;-3.10;99.90;;;-4.33;100.00;97299.09;5027165;28;3083;-71
2024/01/16 08:57:15;;;;;;;;;;;-3.00;99.90;;;-4.27;100.00;97293.22;5049179;28;1005;-71
2024/01/16 08:59:44;;;;;;;;;;;-2.90;99.90;;;-4.30;100.00;97290.69;5026158;28;1067;-71
2024/01/16 09:02:12;;;;;;;;;;;-2.90;99.90;;;-4.16;100.00;97293.34;5032133;28;1303;-72
2024/01/16 09:04:39;;;;;;;;;;;-2.90;99.90;;;-4.18;100.00;97300.09;5031114;28;1269;-72
2024/01/16 09:07:06;;;;;;;;;;;-2.90;99.90;;;-4.06;100.00;97310.34;5047612;28;1041;-72
2024/01/16 09:09:33;;;;;;;;;;;-2.90;99.90;;;-4.25;100.00;97297.47;5048054;28;1932;-72
2024/01/16 09:12:00;;;;;;;;;;;-2.90;99.90;;;-4.09;100.00;97303.56;5046419;28;2028;-71
2024/01/16 09:14:27;;;;;;;;;;;-2.80;99.90;;;-4.11;100.00;97305.22;5046175;28;1308;-72
2024/01/16 09:16:54;;;;;;;;;;;-2.90;99.90;;;-3.84;100.00;97306.34;5045290;28;1126;-71
2024/01/16 09:19:21;;;;;;;;;;;-2.90;99.90;;;-3.74;100.00;97309.81;5027155;28;1153;-72
2024/01/16 09:21:48;;;;;;;;;;;-2.80;99.90;;;-3.89;100.00;97313.94;5048711;28;1006;-72
2024/01/16 09:24:15;;;;;;;;;;;-2.70;99.90;;;-3.79;100.00;97309.78;5046383;28;1398;-72
2024/01/16 09:26:44;;;;;;;;;;;-2.50;99.90;;;-3.42;100.00;97305.91;5046336;28;1061;-71
2024/01/16 09:29:10;;;;;;;;;;;-2.50;99.90;;;-3.73;100.00;97288.72;5026534;28;1211;-71
2024/01/16 09:31:38;;;;;;;;;;;-2.50;99.90;;;-3.48;100.00;97290.63;5027529;28;1906;-71
2024/01/16 09:34:05;;;;;;;;;;;-2.40;99.90;;;-3.54;100.00;97284.66;5027575;28;3167;-72
2024/01/16 09:36:36;;;;;;;;;;;-2.30;99.90;;;-3.52;100.00;97281.28;5012268;28;2542;-70
2024/01/16 09:39:08;;;;;;;;;;;-2.40;99.90;;;-3.38;100.00;97269.53;5027576;28;2565;-71
2024/01/16 09:41:35;;;;;;;;;;;-2.40;99.90;;;-3.26;100.00;97273.00;5028571;28;1118;-72
2024/01/16 09:44:03;;;;;;;;;;;-2.40;99.90;;;-3.28;100.00;97262.84;5028077;28;1352;-72
2024/01/16 09:46:30;;;;;;;;;;;-2.20;99.90;;;-3.33;100.00;97264.53;5027151;28;1117;-72
2024/01/16 09:48:59;;;;;;;;;;;-2.20;99.90;;;-3.52;100.00;97257.59;5027810;28;1910;-71
2024/01/16 09:51:26;;;;;;;;;;;-2.10;99.90;;;-3.21;100.00;97253.59;5050277;28;2070;-72
2024/01/16 09:53:53;;;;;;;;;;;-2.20;99.90;;;-3.06;100.00;97252.81;5032414;28;2454;-72
2024/01/16 09:56:28;;;;;;;;;;;-2.20;99.90;;;-3.34;100.00;97260.28;5051676;28;2539;-71
2024/01/16 09:58:58;;;;;;;;;;;-2.00;99.90;;;-3.16;100.00;97251.94;5052646;28;1102;-72
2024/01/16 10:01:27;;;;;;;;;;;-2.10;99.90;;;-2.83;100.00;97255.50;5029703;28;1050;-72
2024/01/16 10:03:54;;;;;;;;;;;-2.00;99.90;;;-2.88;100.00;97247.84;5030742;28;1937;-72
2024/01/16 10:06:23;;;;;;;;;;;-1.90;99.90;;;-2.59;100.00;97245.44;5031117;28;1061;-71
2024/01/16 10:08:50;;;;;;;;;;;-1.80;99.90;;;-2.64;100.00;97241.19;5033188;28;2087;-72
2024/01/16 10:11:17;;;;;;;;;;;-1.60;99.90;;;-2.61;100.00;97244.59;5050397;28;1191;-71
2024/01/16 10:13:44;;;;;;;;;;;-1.40;99.90;;;-2.44;100.00;97237.03;5030473;28;1934;-72
2024/01/16 10:16:11;;;;;;;;;;;-1.20;99.90;;;-2.37;100.00;97237.91;5028825;28;1637;-72
2024/01/16 10:18:38;;;;;;;;;;;-1.10;99.90;;;-1.96;100.00;97229.50;5051900;28;1087;-72
2024/01/16 10:21:20;;;;;;;;;;;-1.10;99.90;;;-1.77;100.00;97222.75;5052321;28;1247;-72
2024/01/16 10:23:48;;;;;;;;;;;-1.10;99.90;;;-2.09;100.00;97218.47;5051688;28;3179;-72
2024/01/16 10:26:17;;;;;;;;;;;-0.90;99.90;;;-2.13;100.00;97215.06;5052229;28;1122;-72
2024/01/16 10:28:44;;;;;;;;;;;-0.90;99.90;;;-1.97;100.00;97207.47;5051461;28;1034;-72
2024/01/16 10:31:15;;;;;;;;;;;-0.90;99.90;;;-1.80;100.00;97197.28;5050495;28;1023;-72
2024/01/16 10:33:43;;;;;;;;;;;-0.80;99.90;;;-1.80;100.00;97192.19;5031648;28;1981;-72
2024/01/16 10:36:18;;;;;;;;;;;-0.70;99.90;;;-1.97;100.00;97182.03;5030531;28;1244;-72
2024/01/16 10:38:46;;;;;;;;;;;-0.60;99.90;;;-1.76;100.00;97176.09;5031516;28;910;-72
2024/01/16 10:41:15;;;;;;;;;;;-0.60;99.90;;;-1.72;100.00;97170.16;5046274;28;1170;-72
2024/01/16 10:43:43;;;;;;;;;;;-0.60;99.90;;;-1.90;100.00;97176.09;5032201;28;1347;-71
2024/01/16 10:46:14;;;;;;;;;;;-0.60;99.90;;;-1.72;100.00;97175.25;5029816;28;1215;-72
2024/01/16 10:48:44;;;;;;;;;;;-0.60;99.90;;;-1.76;100.00;97166.75;5052263;28;1146;-72
2024/01/16 10:51:14;;;;;;;;;;;-0.80;99.90;;;-1.82;100.00;97166.78;5030584;28;1126;-72
2024/01/16 10:53:46;;;;;;;;;;;-0.70;99.90;;;-1.56;100.00;97156.56;5030495;28;1894;-71
2024/01/16 10:56:15;;;;;;;;;;;-0.50;99.90;;;-1.75;100.00;97163.38;5030183;28;1214;-71
2024/01/16 10:58:43;;;;;;;;;;;-0.50;99.90;;;-1.84;100.00;97155.75;5029999;28;2120;-71
2024/01/16 11:01:14;;;;;;;;;;;-0.40;99.90;;;-1.87;100.00;97155.75;5030689;28;1133;-72
2024/01/16 11:03:49;;;;;;;;;;;-0.60;99.90;;;-1.46;100.00;97154.84;5029832;28;1330;-71
2024/01/16 11:06:17;;;;;;;;;;;-0.60;99.90;;;-1.40;100.00;97146.34;5033088;28;1086;-72
2024/01/16 11:08:48;;;;;;;;;;;-0.50;99.90;;;-1.06;100.00;97137.75;5030497;28;3961;-71
2024/01/16 11:11:15;;;;;;;;;;;-0.30;99.90;;;-1.01;100.00;97137.72;5029688;28;1426;-72
2024/01/16 11:13:44;;;;;;;;;;;-0.10;99.90;;;-0.84;100.00;97137.69;5049374;28;1989;-71
2024/01/16 11:16:11;;;;;;;;;;;0.10;99.90;;;-0.83;100.00;97125.78;5049920;28;1326;-72
2024/01/16 11:18:39;;;;;;;;;;;0.30;99.90;;;-0.63;100.00;97118.88;5012255;28;1231;-72